FDX371 KSEA-KLAX
Flight info
| Callsign | FDX371 |
|---|---|
| Flight time | 2h 3m |
| Altitude | 37000 |
| Route | SUMMA2 SUMMA JINMO Q7 JAGWA BURGL IRNMN2 |
| Aircraft | B752/M-SDE3FGHIM3RWXY/LB1 |
Departure
| Time | 2026-04-24 00:57 |
|---|---|
| Airport | Seattle–Tacoma International Airport (KSEA) |
Arrival
| Time | 2026-04-24 03:00 |
|---|---|
| Airport | Los Angeles International Airport (KLAX) |
| Time | Latitude | Longitude | Altitude | Speed | Heading |
|---|---|---|---|---|---|
| 2026-04-24 00:22 | 47.46106 | -122.30154 | 438 ft | 0 kts | 180° |
| 2026-04-24 00:44 | 47.46108 | -122.30154 | 437 ft | 2 kts | 181° |
| 2026-04-24 00:44 | 47.46124 | -122.30154 | 437 ft | 2 kts | 180° |
| 2026-04-24 00:45 | 47.46138 | -122.30154 | 437 ft | 2 kts | 180° |
| 2026-04-24 00:45 | 47.46154 | -122.30154 | 437 ft | 2 kts | 180° |
| 2026-04-24 00:45 | 47.46168 | -122.30149 | 437 ft | 2 kts | 213° |
| 2026-04-24 00:45 | 47.46179 | -122.30134 | 437 ft | 2 kts | 241° |
| 2026-04-24 00:46 | 47.46183 | -122.30112 | 437 ft | 2 kts | 270° |
| 2026-04-24 00:46 | 47.46183 | -122.30092 | 437 ft | 1 kts | 270° |
| 2026-04-24 00:46 | 47.46183 | -122.30084 | 437 ft | 0 kts | 270° |
| 2026-04-24 00:49 | 47.46183 | -122.30099 | 437 ft | 3 kts | 270° |
| 2026-04-24 00:49 | 47.46183 | -122.30151 | 437 ft | 6 kts | 271° |
| 2026-04-24 00:49 | 47.46183 | -122.30222 | 437 ft | 7 kts | 271° |
| 2026-04-24 00:49 | 47.46184 | -122.30299 | 437 ft | 7 kts | 270° |
| 2026-04-24 00:50 | 47.46184 | -122.30384 | 437 ft | 9 kts | 270° |
| 2026-04-24 00:50 | 47.46184 | -122.30485 | 437 ft | 10 kts | 270° |
| 2026-04-24 00:50 | 47.46180 | -122.30590 | 436 ft | 6 kts | 240° |
| 2026-04-24 00:50 | 47.46132 | -122.30615 | 435 ft | 11 kts | 182° |
| 2026-04-24 00:51 | 47.46019 | -122.30617 | 434 ft | 21 kts | 181° |
| 2026-04-24 00:51 | 47.45844 | -122.30620 | 433 ft | 28 kts | 180° |
| 2026-04-24 00:51 | 47.45636 | -122.30620 | 433 ft | 29 kts | 180° |
| 2026-04-24 00:51 | 47.45431 | -122.30623 | 431 ft | 30 kts | 181° |
| 2026-04-24 00:52 | 47.45232 | -122.30624 | 423 ft | 28 kts | 180° |
| 2026-04-24 00:52 | 47.45026 | -122.30626 | 415 ft | 30 kts | 180° |
| 2026-04-24 00:52 | 47.44841 | -122.30627 | 406 ft | 24 kts | 180° |
| 2026-04-24 00:52 | 47.44674 | -122.30629 | 400 ft | 24 kts | 181° |
| 2026-04-24 00:53 | 47.44497 | -122.30632 | 395 ft | 25 kts | 180° |
| 2026-04-24 00:53 | 47.44317 | -122.30634 | 389 ft | 24 kts | 180° |
| 2026-04-24 00:53 | 47.44140 | -122.30637 | 383 ft | 23 kts | 180° |
| 2026-04-24 00:53 | 47.43980 | -122.30638 | 378 ft | 21 kts | 180° |
| 2026-04-24 00:54 | 47.43825 | -122.30640 | 372 ft | 22 kts | 180° |
| 2026-04-24 00:54 | 47.43683 | -122.30641 | 365 ft | 21 kts | 176° |
| 2026-04-24 00:54 | 47.43549 | -122.30559 | 363 ft | 20 kts | 169° |
| 2026-04-24 00:54 | 47.43404 | -122.30558 | 360 ft | 20 kts | 180° |
| 2026-04-24 00:55 | 47.43277 | -122.30560 | 356 ft | 15 kts | 185° |
| 2026-04-24 00:55 | 47.43189 | -122.30619 | 355 ft | 11 kts | 229° |
| 2026-04-24 00:55 | 47.43168 | -122.30686 | 355 ft | 5 kts | 271° |
| 2026-04-24 00:55 | 47.43173 | -122.30777 | 346 ft | 5 kts | 285° |
| 2026-04-24 00:56 | 47.43201 | -122.30801 | 347 ft | 7 kts | 356° |
| 2026-04-24 00:56 | 47.43303 | -122.30801 | 349 ft | 32 kts | 0° |
| 2026-04-24 00:56 | 47.43776 | -122.30798 | 364 ft | 102 kts | 360° |
| 2026-04-24 00:56 | 47.44705 | -122.30793 | 411 ft | 161 kts | 359° |
| 2026-04-24 00:57 | 47.45820 | -122.30795 | 1199 ft | 160 kts | 0° |
| 2026-04-24 00:57 | 47.46927 | -122.30792 | 1940 ft | 169 kts | 0° |
| 2026-04-24 00:57 | 47.49529 | -122.30637 | 3097 ft | 208 kts | 3° |
| 2026-04-24 00:58 | 47.51009 | -122.30572 | 3848 ft | 220 kts | 0° |
| 2026-04-24 00:58 | 47.52543 | -122.30608 | 4615 ft | 231 kts | 358° |
| 2026-04-24 00:58 | 47.54210 | -122.30734 | 5343 ft | 245 kts | 356° |
| 2026-04-24 00:58 | 47.55876 | -122.30956 | 6438 ft | 242 kts | 355° |
| 2026-04-24 00:59 | 47.57584 | -122.30856 | 7148 ft | 256 kts | 14° |
| 2026-04-24 00:59 | 47.59170 | -122.29560 | 8013 ft | 267 kts | 40° |
| 2026-04-24 00:59 | 47.60234 | -122.27348 | 9039 ft | 274 kts | 63° |
| 2026-04-24 00:59 | 47.60606 | -122.24535 | 9703 ft | 297 kts | 88° |
| 2026-04-24 01:00 | 47.60087 | -122.21452 | 10289 ft | 321 kts | 113° |
| 2026-04-24 01:00 | 47.58719 | -122.18761 | 10711 ft | 346 kts | 136° |
| 2026-04-24 01:00 | 47.56652 | -122.16728 | 11117 ft | 365 kts | 156° |
| 2026-04-24 01:00 | 47.54179 | -122.15574 | 11407 ft | 385 kts | 171° |
| 2026-04-24 01:01 | 47.51471 | -122.15273 | 11869 ft | 396 kts | 180° |
| 2026-04-24 01:01 | 47.48732 | -122.14811 | 12504 ft | 404 kts | 173° |
| 2026-04-24 01:01 | 47.45928 | -122.14172 | 13320 ft | 406 kts | 174° |
| 2026-04-24 01:01 | 47.43121 | -122.13605 | 14019 ft | 412 kts | 174° |
| 2026-04-24 01:02 | 47.40295 | -122.13058 | 14717 ft | 417 kts | 174° |
| 2026-04-24 01:02 | 47.37374 | -122.12508 | 15437 ft | 423 kts | 174° |
| 2026-04-24 01:02 | 47.34457 | -122.11966 | 16131 ft | 427 kts | 174° |
| 2026-04-24 01:02 | 47.31485 | -122.11418 | 16826 ft | 432 kts | 175° |
| 2026-04-24 01:03 | 47.28482 | -122.10868 | 17405 ft | 438 kts | 175° |
| 2026-04-24 01:03 | 47.25428 | -122.10309 | 18086 ft | 442 kts | 174° |
| 2026-04-24 01:03 | 47.22374 | -122.09752 | 18638 ft | 449 kts | 175° |
| 2026-04-24 01:03 | 47.19233 | -122.09179 | 19362 ft | 452 kts | 175° |
| 2026-04-24 01:04 | 47.16114 | -122.08611 | 20063 ft | 454 kts | 175° |
| 2026-04-24 01:04 | 47.12951 | -122.08038 | 20675 ft | 459 kts | 175° |
| 2026-04-24 01:04 | 47.09735 | -122.07454 | 21290 ft | 463 kts | 174° |
| 2026-04-24 01:04 | 47.06530 | -122.06873 | 21977 ft | 465 kts | 175° |
| 2026-04-24 01:05 | 47.03331 | -122.06293 | 22532 ft | 470 kts | 174° |
| 2026-04-24 01:05 | 47.00013 | -122.05694 | 23155 ft | 473 kts | 175° |
| 2026-04-24 01:05 | 46.96727 | -122.05100 | 23715 ft | 477 kts | 174° |
| 2026-04-24 01:05 | 46.93442 | -122.04508 | 24320 ft | 479 kts | 175° |
| 2026-04-24 01:06 | 46.90052 | -122.03898 | 24738 ft | 486 kts | 175° |
| 2026-04-24 01:06 | 46.86687 | -122.03292 | 25476 ft | 486 kts | 174° |
| 2026-04-24 01:06 | 46.83312 | -122.02686 | 25970 ft | 490 kts | 174° |
| 2026-04-24 01:06 | 46.79907 | -122.02075 | 26457 ft | 495 kts | 174° |
| 2026-04-24 01:07 | 46.76461 | -122.01457 | 26969 ft | 498 kts | 174° |
| 2026-04-24 01:07 | 46.72955 | -122.00832 | 27433 ft | 503 kts | 174° |
| 2026-04-24 01:07 | 46.69462 | -122.00207 | 27913 ft | 506 kts | 174° |
| 2026-04-24 01:07 | 46.65957 | -121.99699 | 28400 ft | 508 kts | 179° |
| 2026-04-24 01:08 | 46.62422 | -121.99884 | 28888 ft | 507 kts | 189° |
| 2026-04-24 01:08 | 46.58980 | -122.00821 | 29300 ft | 507 kts | 198° |
| 2026-04-24 01:08 | 46.55627 | -122.02433 | 29668 ft | 507 kts | 204° |
| 2026-04-24 01:08 | 46.52269 | -122.04238 | 30138 ft | 510 kts | 204° |
| 2026-04-24 01:09 | 46.48924 | -122.06052 | 30511 ft | 513 kts | 204° |
| 2026-04-24 01:09 | 46.45576 | -122.07882 | 30893 ft | 516 kts | 205° |
| 2026-04-24 01:09 | 46.42151 | -122.09670 | 31213 ft | 521 kts | 200° |
| 2026-04-24 01:09 | 46.38594 | -122.10827 | 31671 ft | 524 kts | 191° |
| 2026-04-24 01:10 | 46.34890 | -122.11227 | 32088 ft | 527 kts | 181° |
| 2026-04-24 01:10 | 46.31252 | -122.10860 | 32510 ft | 528 kts | 173° |
| 2026-04-24 01:10 | 46.27608 | -122.10082 | 32898 ft | 528 kts | 172° |
| 2026-04-24 01:10 | 46.24004 | -122.09283 | 33341 ft | 527 kts | 171° |
| 2026-04-24 01:11 | 46.20317 | -122.08441 | 33649 ft | 529 kts | 171° |
| 2026-04-24 01:11 | 46.16750 | -122.07610 | 34053 ft | 528 kts | 171° |
| 2026-04-24 01:11 | 46.13073 | -122.06744 | 34421 ft | 528 kts | 171° |
| 2026-04-24 01:11 | 46.09365 | -122.05868 | 34634 ft | 531 kts | 171° |
| 2026-04-24 01:12 | 46.05709 | -122.04999 | 35106 ft | 528 kts | 171° |
| 2026-04-24 01:12 | 46.02101 | -122.04144 | 35628 ft | 522 kts | 171° |
| 2026-04-24 01:12 | 45.98461 | -122.03281 | 35997 ft | 520 kts | 171° |
| 2026-04-24 01:12 | 45.94936 | -122.02445 | 36429 ft | 516 kts | 171° |
| 2026-04-24 01:13 | 45.91347 | -122.01595 | 36764 ft | 515 kts | 171° |
| 2026-04-24 01:13 | 45.87798 | -122.00755 | 37113 ft | 511 kts | 171° |
| 2026-04-24 01:13 | 45.84278 | -121.99924 | 37074 ft | 509 kts | 171° |
| 2026-04-24 01:14 | 45.78542 | -121.98571 | 37086 ft | 507 kts | 171° |
| 2026-04-24 01:14 | 45.71350 | -121.96878 | 37093 ft | 508 kts | 171° |
| 2026-04-24 01:15 | 45.64329 | -121.95229 | 37089 ft | 506 kts | 172° |
| 2026-04-24 01:15 | 45.57341 | -121.93594 | 37087 ft | 508 kts | 172° |
| 2026-04-24 01:16 | 45.50367 | -121.91965 | 37083 ft | 506 kts | 172° |
| 2026-04-24 01:16 | 45.43417 | -121.90344 | 37076 ft | 505 kts | 172° |
| 2026-04-24 01:17 | 45.36515 | -121.88741 | 37067 ft | 505 kts | 172° |
| 2026-04-24 01:17 | 45.29548 | -121.87125 | 37065 ft | 505 kts | 171° |
| 2026-04-24 01:18 | 45.22650 | -121.85528 | 37063 ft | 502 kts | 171° |
| 2026-04-24 01:18 | 45.15742 | -121.83934 | 37071 ft | 503 kts | 172° |
| 2026-04-24 01:19 | 45.08795 | -121.82336 | 37065 ft | 501 kts | 171° |
| 2026-04-24 01:19 | 45.01831 | -121.80737 | 37069 ft | 502 kts | 171° |
| 2026-04-24 01:20 | 44.94853 | -121.79139 | 37077 ft | 500 kts | 171° |
| 2026-04-24 01:20 | 44.87941 | -121.77559 | 37070 ft | 500 kts | 171° |
| 2026-04-24 01:21 | 44.81120 | -121.76004 | 37070 ft | 500 kts | 171° |
| 2026-04-24 01:21 | 44.74260 | -121.74445 | 37072 ft | 499 kts | 171° |
| 2026-04-24 01:22 | 44.67445 | -121.72899 | 37084 ft | 498 kts | 171° |
| 2026-04-24 01:22 | 44.60593 | -121.71349 | 37066 ft | 500 kts | 171° |
| 2026-04-24 01:23 | 44.54906 | -121.70064 | 37077 ft | 500 kts | 171° |
| 2026-04-24 01:23 | 44.48047 | -121.68519 | 37078 ft | 496 kts | 171° |
| 2026-04-24 01:24 | 44.41209 | -121.66981 | 37076 ft | 498 kts | 171° |
| 2026-04-24 01:24 | 44.34416 | -121.65459 | 37070 ft | 497 kts | 171° |
| 2026-04-24 01:25 | 44.27574 | -121.63882 | 37073 ft | 496 kts | 171° |
| 2026-04-24 01:25 | 44.20743 | -121.62297 | 37081 ft | 497 kts | 171° |
| 2026-04-24 01:26 | 44.13951 | -121.60725 | 37076 ft | 497 kts | 171° |
| 2026-04-24 01:26 | 44.07140 | -121.59152 | 37083 ft | 495 kts | 171° |
| 2026-04-24 01:27 | 44.00350 | -121.57588 | 37081 ft | 494 kts | 171° |
| 2026-04-24 01:27 | 43.93582 | -121.56033 | 37081 ft | 494 kts | 171° |
| 2026-04-24 01:28 | 43.86772 | -121.54471 | 37079 ft | 494 kts | 171° |
| 2026-04-24 01:28 | 43.80222 | -121.52973 | 37074 ft | 494 kts | 171° |
| 2026-04-24 01:29 | 43.73458 | -121.51430 | 37081 ft | 492 kts | 171° |
| 2026-04-24 01:29 | 43.65591 | -121.49638 | 37077 ft | 491 kts | 171° |
| 2026-04-24 01:30 | 43.58820 | -121.48099 | 37072 ft | 490 kts | 171° |
| 2026-04-24 01:30 | 43.52101 | -121.46577 | 37073 ft | 490 kts | 171° |
| 2026-04-24 01:31 | 43.45364 | -121.45055 | 37079 ft | 489 kts | 171° |
| 2026-04-24 01:31 | 43.38642 | -121.43538 | 37078 ft | 489 kts | 171° |
| 2026-04-24 01:32 | 43.31980 | -121.42039 | 37086 ft | 486 kts | 171° |
| 2026-04-24 01:32 | 43.25304 | -121.40540 | 37087 ft | 486 kts | 171° |
| 2026-04-24 01:33 | 43.18636 | -121.39045 | 37080 ft | 487 kts | 171° |
| 2026-04-24 01:33 | 43.11994 | -121.37561 | 37090 ft | 485 kts | 171° |
| 2026-04-24 01:34 | 43.05344 | -121.36077 | 37081 ft | 485 kts | 171° |
| 2026-04-24 01:34 | 42.98667 | -121.34591 | 37069 ft | 484 kts | 172° |
| 2026-04-24 01:35 | 42.92009 | -121.33112 | 37086 ft | 484 kts | 172° |
| 2026-04-24 01:35 | 42.85323 | -121.31629 | 37088 ft | 484 kts | 172° |
| 2026-04-24 01:36 | 42.78678 | -121.30160 | 37077 ft | 486 kts | 172° |
| 2026-04-24 01:36 | 42.72026 | -121.28692 | 37076 ft | 483 kts | 172° |
| 2026-04-24 01:37 | 42.65350 | -121.27222 | 37081 ft | 485 kts | 173° |
| 2026-04-24 01:37 | 42.58669 | -121.25756 | 37085 ft | 485 kts | 173° |
| 2026-04-24 01:38 | 42.52030 | -121.24300 | 37082 ft | 484 kts | 173° |
| 2026-04-24 01:38 | 42.45373 | -121.22844 | 37082 ft | 485 kts | 173° |
| 2026-04-24 01:39 | 42.38715 | -121.21390 | 37080 ft | 484 kts | 173° |
| 2026-04-24 01:39 | 42.32088 | -121.19947 | 37088 ft | 484 kts | 173° |
| 2026-04-24 01:40 | 42.25415 | -121.18497 | 37085 ft | 484 kts | 173° |
| 2026-04-24 01:40 | 42.18796 | -121.17062 | 37092 ft | 483 kts | 173° |
| 2026-04-24 01:41 | 42.12160 | -121.15625 | 37099 ft | 483 kts | 173° |
| 2026-04-24 01:41 | 42.05518 | -121.14191 | 37103 ft | 483 kts | 173° |
| 2026-04-24 01:42 | 41.98880 | -121.12761 | 37106 ft | 483 kts | 173° |
| 2026-04-24 01:42 | 41.92222 | -121.11329 | 37108 ft | 483 kts | 174° |
| 2026-04-24 01:43 | 41.85599 | -121.09908 | 37105 ft | 484 kts | 174° |
| 2026-04-24 01:43 | 41.78881 | -121.08470 | 37106 ft | 484 kts | 174° |
| 2026-04-24 01:44 | 41.72212 | -121.07044 | 37103 ft | 485 kts | 174° |
| 2026-04-24 01:44 | 41.65519 | -121.05617 | 37105 ft | 487 kts | 174° |
| 2026-04-24 01:45 | 41.58850 | -121.04198 | 37101 ft | 485 kts | 174° |
| 2026-04-24 01:45 | 41.52159 | -121.02776 | 37106 ft | 487 kts | 175° |
| 2026-04-24 01:46 | 41.45461 | -121.01359 | 37106 ft | 486 kts | 175° |
| 2026-04-24 01:46 | 41.38775 | -120.99944 | 37112 ft | 487 kts | 175° |
| 2026-04-24 01:47 | 41.33114 | -120.98750 | 37113 ft | 487 kts | 175° |
| 2026-04-24 01:47 | 41.26381 | -120.97331 | 37110 ft | 489 kts | 175° |
| 2026-04-24 01:48 | 41.19658 | -120.95917 | 37111 ft | 488 kts | 176° |
| 2026-04-24 01:48 | 41.12999 | -120.94521 | 37112 ft | 488 kts | 176° |
| 2026-04-24 01:49 | 41.06255 | -120.93110 | 37111 ft | 488 kts | 176° |
| 2026-04-24 01:49 | 40.99533 | -120.91750 | 37112 ft | 483 kts | 180° |
| 2026-04-24 01:50 | 40.92761 | -120.91214 | 37110 ft | 481 kts | 182° |
| 2026-04-24 01:50 | 40.86063 | -120.90694 | 37109 ft | 481 kts | 182° |
| 2026-04-24 01:51 | 40.79365 | -120.90165 | 37103 ft | 481 kts | 182° |
| 2026-04-24 01:51 | 40.72709 | -120.89635 | 37109 ft | 482 kts | 182° |
| 2026-04-24 01:52 | 40.65994 | -120.89101 | 37113 ft | 481 kts | 182° |
| 2026-04-24 01:52 | 40.59295 | -120.88568 | 37109 ft | 479 kts | 182° |
| 2026-04-24 01:53 | 40.52554 | -120.88034 | 37104 ft | 480 kts | 182° |
| 2026-04-24 01:53 | 40.45850 | -120.87503 | 37100 ft | 480 kts | 182° |
| 2026-04-24 01:54 | 40.39185 | -120.86976 | 37092 ft | 479 kts | 182° |
| 2026-04-24 01:54 | 40.31426 | -120.86363 | 37094 ft | 478 kts | 182° |
| 2026-04-24 01:55 | 40.24754 | -120.85839 | 37095 ft | 479 kts | 182° |
| 2026-04-24 01:55 | 40.18028 | -120.85311 | 37084 ft | 479 kts | 182° |
| 2026-04-24 01:56 | 40.11376 | -120.84789 | 37079 ft | 478 kts | 182° |
| 2026-04-24 01:56 | 40.06142 | -120.84380 | 37087 ft | 478 kts | 182° |
| 2026-04-24 01:57 | 40.00209 | -120.83916 | 37083 ft | 477 kts | 182° |
| 2026-04-24 01:57 | 39.93528 | -120.83396 | 37086 ft | 477 kts | 182° |
| 2026-04-24 01:58 | 39.86859 | -120.82877 | 37081 ft | 478 kts | 182° |
| 2026-04-24 01:58 | 39.80183 | -120.82359 | 37084 ft | 478 kts | 182° |
| 2026-04-24 01:59 | 39.73455 | -120.81837 | 37090 ft | 478 kts | 182° |
| 2026-04-24 01:59 | 39.66809 | -120.81322 | 37090 ft | 476 kts | 182° |
| 2026-04-24 02:00 | 39.60115 | -120.80804 | 37088 ft | 475 kts | 182° |
| 2026-04-24 02:00 | 39.53487 | -120.80295 | 37082 ft | 476 kts | 182° |
| 2026-04-24 02:01 | 39.46813 | -120.79781 | 37079 ft | 475 kts | 182° |
| 2026-04-24 02:01 | 39.40151 | -120.79269 | 37082 ft | 477 kts | 182° |
| 2026-04-24 02:02 | 39.33446 | -120.78757 | 37087 ft | 476 kts | 182° |
| 2026-04-24 02:02 | 39.26786 | -120.78246 | 37102 ft | 475 kts | 182° |
| 2026-04-24 02:03 | 39.16813 | -120.77485 | 37096 ft | 474 kts | 182° |
| 2026-04-24 02:03 | 39.10157 | -120.76978 | 37069 ft | 473 kts | 182° |
| 2026-04-24 02:04 | 39.03592 | -120.76480 | 37055 ft | 475 kts | 182° |
| 2026-04-24 02:04 | 38.96960 | -120.75977 | 37047 ft | 474 kts | 182° |
| 2026-04-24 02:05 | 38.90335 | -120.75475 | 37056 ft | 474 kts | 182° |
| 2026-04-24 02:05 | 38.83789 | -120.74981 | 37063 ft | 474 kts | 183° |
| 2026-04-24 02:06 | 38.77144 | -120.74480 | 37067 ft | 472 kts | 183° |
| 2026-04-24 02:06 | 38.70533 | -120.73982 | 37070 ft | 473 kts | 183° |
| 2026-04-24 02:07 | 38.63964 | -120.73489 | 37069 ft | 472 kts | 183° |
| 2026-04-24 02:07 | 38.57346 | -120.72993 | 37063 ft | 472 kts | 182° |
| 2026-04-24 02:08 | 38.50687 | -120.72494 | 37058 ft | 471 kts | 183° |
| 2026-04-24 02:08 | 38.44068 | -120.72000 | 37056 ft | 472 kts | 182° |
| 2026-04-24 02:09 | 38.37497 | -120.71509 | 37058 ft | 470 kts | 183° |
| 2026-04-24 02:09 | 38.30936 | -120.71021 | 37059 ft | 471 kts | 183° |
| 2026-04-24 02:10 | 38.24407 | -120.70536 | 37059 ft | 470 kts | 183° |
| 2026-04-24 02:10 | 38.17847 | -120.70049 | 37058 ft | 471 kts | 183° |
| 2026-04-24 02:11 | 38.11234 | -120.69559 | 37055 ft | 470 kts | 183° |
| 2026-04-24 02:11 | 38.04658 | -120.69073 | 37047 ft | 469 kts | 183° |
| 2026-04-24 02:12 | 37.98097 | -120.68589 | 37044 ft | 469 kts | 183° |
| 2026-04-24 02:12 | 37.91594 | -120.68111 | 37037 ft | 468 kts | 183° |
| 2026-04-24 02:13 | 37.85074 | -120.67631 | 37022 ft | 468 kts | 183° |
| 2026-04-24 02:13 | 37.78557 | -120.67153 | 37013 ft | 469 kts | 183° |
| 2026-04-24 02:14 | 37.71994 | -120.66672 | 37012 ft | 467 kts | 183° |
| 2026-04-24 02:14 | 37.65483 | -120.66196 | 37016 ft | 468 kts | 183° |
| 2026-04-24 02:15 | 37.58967 | -120.65720 | 37013 ft | 467 kts | 183° |
| 2026-04-24 02:15 | 37.52377 | -120.65241 | 37014 ft | 467 kts | 183° |
| 2026-04-24 02:16 | 37.45863 | -120.64767 | 37011 ft | 467 kts | 183° |
| 2026-04-24 02:16 | 37.39377 | -120.64295 | 37012 ft | 466 kts | 183° |
| 2026-04-24 02:17 | 37.32867 | -120.63631 | 37012 ft | 472 kts | 175° |
| 2026-04-24 02:17 | 37.26362 | -120.61631 | 37011 ft | 474 kts | 172° |
| 2026-04-24 02:18 | 37.19979 | -120.59582 | 37013 ft | 475 kts | 172° |
| 2026-04-24 02:18 | 37.13545 | -120.57503 | 37011 ft | 475 kts | 172° |
| 2026-04-24 02:19 | 37.07153 | -120.55434 | 37008 ft | 474 kts | 172° |
| 2026-04-24 02:19 | 37.00764 | -120.53369 | 37002 ft | 473 kts | 172° |
| 2026-04-24 02:20 | 36.94364 | -120.51303 | 37000 ft | 473 kts | 172° |
| 2026-04-24 02:20 | 36.88010 | -120.49255 | 36999 ft | 471 kts | 172° |
| 2026-04-24 02:21 | 36.81713 | -120.47229 | 37007 ft | 472 kts | 172° |
| 2026-04-24 02:21 | 36.75328 | -120.45178 | 37008 ft | 472 kts | 172° |
| 2026-04-24 02:22 | 36.68921 | -120.43124 | 37008 ft | 472 kts | 172° |
| 2026-04-24 02:22 | 36.62487 | -120.41065 | 37007 ft | 472 kts | 172° |
| 2026-04-24 02:23 | 36.56088 | -120.39020 | 37009 ft | 473 kts | 172° |
| 2026-04-24 02:23 | 36.49686 | -120.36977 | 37014 ft | 471 kts | 172° |
| 2026-04-24 02:24 | 36.43270 | -120.34933 | 37016 ft | 471 kts | 173° |
| 2026-04-24 02:24 | 36.36882 | -120.32902 | 37005 ft | 469 kts | 173° |
| 2026-04-24 02:25 | 36.30528 | -120.30886 | 36998 ft | 469 kts | 173° |
| 2026-04-24 02:25 | 36.24212 | -120.28885 | 36997 ft | 470 kts | 173° |
| 2026-04-24 02:26 | 36.17872 | -120.26879 | 36996 ft | 469 kts | 173° |
| 2026-04-24 02:26 | 36.11482 | -120.24861 | 36994 ft | 470 kts | 173° |
| 2026-04-24 02:27 | 36.05158 | -120.22868 | 36998 ft | 469 kts | 173° |
| 2026-04-24 02:27 | 36.00065 | -120.21265 | 37001 ft | 468 kts | 173° |
| 2026-04-24 02:28 | 35.92657 | -120.18935 | 37002 ft | 466 kts | 173° |
| 2026-04-24 02:28 | 35.86337 | -120.16954 | 37003 ft | 469 kts | 173° |
| 2026-04-24 02:29 | 35.80017 | -120.14974 | 37004 ft | 468 kts | 173° |
| 2026-04-24 02:29 | 35.73495 | -120.12934 | 37007 ft | 469 kts | 173° |
| 2026-04-24 02:30 | 35.67137 | -120.10689 | 37021 ft | 476 kts | 164° |
| 2026-04-24 02:30 | 35.61239 | -120.06682 | 37009 ft | 485 kts | 155° |
| 2026-04-24 02:31 | 35.55416 | -120.02331 | 37020 ft | 485 kts | 155° |
| 2026-04-24 02:31 | 35.49613 | -119.97977 | 37025 ft | 485 kts | 155° |
| 2026-04-24 02:32 | 35.43682 | -119.93527 | 37021 ft | 487 kts | 155° |
| 2026-04-24 02:32 | 35.37886 | -119.89180 | 37029 ft | 487 kts | 155° |
| 2026-04-24 02:33 | 35.32086 | -119.84836 | 37036 ft | 486 kts | 155° |
| 2026-04-24 02:33 | 35.26417 | -119.80100 | 37040 ft | 494 kts | 149° |
| 2026-04-24 02:34 | 35.21050 | -119.75092 | 36979 ft | 470 kts | 149° |
| 2026-04-24 02:34 | 35.18448 | -119.72666 | 36500 ft | 464 kts | 149° |
| 2026-04-24 02:34 | 35.15834 | -119.70235 | 35736 ft | 466 kts | 149° |
| 2026-04-24 02:35 | 35.13260 | -119.67841 | 35100 ft | 466 kts | 149° |
| 2026-04-24 02:35 | 35.10670 | -119.65428 | 34557 ft | 463 kts | 148° |
| 2026-04-24 02:35 | 35.08090 | -119.63027 | 33785 ft | 465 kts | 148° |
| 2026-04-24 02:35 | 35.05510 | -119.60632 | 32816 ft | 469 kts | 148° |
| 2026-04-24 02:36 | 35.02859 | -119.58167 | 31961 ft | 469 kts | 147° |
| 2026-04-24 02:36 | 35.00241 | -119.55737 | 30956 ft | 474 kts | 147° |
| 2026-04-24 02:36 | 34.97683 | -119.53363 | 30125 ft | 470 kts | 147° |
| 2026-04-24 02:36 | 34.95864 | -119.51675 | 29573 ft | 467 kts | 147° |
| 2026-04-24 02:37 | 34.93063 | -119.49079 | 28813 ft | 468 kts | 147° |
| 2026-04-24 02:37 | 34.91065 | -119.47238 | 28398 ft | 468 kts | 147° |
| 2026-04-24 02:37 | 34.88452 | -119.44896 | 27815 ft | 467 kts | 147° |
| 2026-04-24 02:37 | 34.85818 | -119.42538 | 27215 ft | 464 kts | 147° |
| 2026-04-24 02:38 | 34.83195 | -119.40189 | 26633 ft | 457 kts | 147° |
| 2026-04-24 02:38 | 34.80665 | -119.37926 | 26126 ft | 451 kts | 147° |
| 2026-04-24 02:38 | 34.78146 | -119.35673 | 25564 ft | 451 kts | 147° |
| 2026-04-24 02:38 | 34.75656 | -119.33249 | 24773 ft | 450 kts | 143° |
| 2026-04-24 02:39 | 34.73252 | -119.30839 | 24161 ft | 443 kts | 146° |
| 2026-04-24 02:39 | 34.70763 | -119.28781 | 23720 ft | 430 kts | 151° |
| 2026-04-24 02:39 | 34.68271 | -119.26775 | 23298 ft | 422 kts | 149° |
| 2026-04-24 02:39 | 34.65900 | -119.24792 | 22851 ft | 410 kts | 149° |
| 2026-04-24 02:40 | 34.63560 | -119.22817 | 22196 ft | 405 kts | 149° |
| 2026-04-24 02:40 | 34.61272 | -119.20873 | 21703 ft | 403 kts | 149° |
| 2026-04-24 02:40 | 34.58937 | -119.18877 | 21175 ft | 406 kts | 148° |
| 2026-04-24 02:40 | 34.56646 | -119.16911 | 20655 ft | 405 kts | 148° |
| 2026-04-24 02:41 | 34.54388 | -119.14924 | 20149 ft | 401 kts | 147° |
| 2026-04-24 02:41 | 34.52105 | -119.12902 | 19598 ft | 398 kts | 147° |
| 2026-04-24 02:41 | 34.49907 | -119.10957 | 19061 ft | 394 kts | 147° |
| 2026-04-24 02:41 | 34.47675 | -119.08981 | 18529 ft | 391 kts | 147° |
| 2026-04-24 02:42 | 34.45477 | -119.07040 | 17993 ft | 389 kts | 147° |
| 2026-04-24 02:42 | 34.43301 | -119.05128 | 17526 ft | 385 kts | 148° |
| 2026-04-24 02:42 | 34.41133 | -119.03252 | 17014 ft | 384 kts | 147° |
| 2026-04-24 02:42 | 34.38967 | -119.01376 | 16475 ft | 381 kts | 147° |
| 2026-04-24 02:43 | 34.36840 | -118.99535 | 15957 ft | 376 kts | 147° |
| 2026-04-24 02:43 | 34.34706 | -118.97687 | 15467 ft | 373 kts | 147° |
| 2026-04-24 02:43 | 34.32641 | -118.95839 | 14965 ft | 373 kts | 146° |
| 2026-04-24 02:43 | 34.30549 | -118.93934 | 14476 ft | 369 kts | 146° |
| 2026-04-24 02:44 | 34.28500 | -118.92075 | 13982 ft | 367 kts | 146° |
| 2026-04-24 02:44 | 34.26460 | -118.90225 | 13487 ft | 366 kts | 146° |
| 2026-04-24 02:44 | 34.24456 | -118.88397 | 13055 ft | 360 kts | 145° |
| 2026-04-24 02:44 | 34.22480 | -118.86577 | 12799 ft | 355 kts | 145° |
| 2026-04-24 02:45 | 34.20510 | -118.84767 | 12534 ft | 349 kts | 145° |
| 2026-04-24 02:45 | 34.18607 | -118.83017 | 12459 ft | 332 kts | 145° |
| 2026-04-24 02:45 | 34.16846 | -118.81396 | 12468 ft | 311 kts | 144° |
| 2026-04-24 02:45 | 34.15181 | -118.79640 | 12295 ft | 324 kts | 140° |
| 2026-04-24 02:46 | 34.13461 | -118.77773 | 11846 ft | 329 kts | 140° |
| 2026-04-24 02:46 | 34.11785 | -118.75954 | 11305 ft | 326 kts | 140° |
| 2026-04-24 02:46 | 34.10089 | -118.74112 | 10824 ft | 326 kts | 140° |
| 2026-04-24 02:46 | 34.08389 | -118.72267 | 10237 ft | 329 kts | 140° |
| 2026-04-24 02:47 | 34.06682 | -118.70416 | 9695 ft | 330 kts | 139° |
| 2026-04-24 02:47 | 34.05002 | -118.68582 | 9464 ft | 319 kts | 136° |
| 2026-04-24 02:47 | 34.03666 | -118.66487 | 9306 ft | 307 kts | 115° |
| 2026-04-24 02:47 | 34.03048 | -118.64060 | 9033 ft | 300 kts | 100° |
| 2026-04-24 02:48 | 34.02687 | -118.61581 | 8641 ft | 299 kts | 98° |
| 2026-04-24 02:48 | 34.02375 | -118.59110 | 8170 ft | 300 kts | 97° |
| 2026-04-24 02:48 | 34.02097 | -118.56616 | 7778 ft | 297 kts | 96° |
| 2026-04-24 02:48 | 34.01848 | -118.54227 | 7675 ft | 284 kts | 96° |
| 2026-04-24 02:49 | 34.01612 | -118.51866 | 7563 ft | 272 kts | 95° |
| 2026-04-24 02:49 | 34.01396 | -118.49648 | 7556 ft | 257 kts | 95° |
| 2026-04-24 02:49 | 34.01197 | -118.47588 | 7555 ft | 240 kts | 95° |
| 2026-04-24 02:49 | 34.01106 | -118.45629 | 7553 ft | 232 kts | 81° |
| 2026-04-24 02:50 | 34.01268 | -118.43642 | 7329 ft | 250 kts | 95° |
| 2026-04-24 02:50 | 34.00724 | -118.41672 | 6992 ft | 250 kts | 118° |
| 2026-04-24 02:50 | 33.99805 | -118.39893 | 6718 ft | 248 kts | 121° |
| 2026-04-24 02:50 | 33.98877 | -118.38152 | 6451 ft | 246 kts | 121° |
| 2026-04-24 02:51 | 33.97951 | -118.36434 | 6182 ft | 244 kts | 121° |
| 2026-04-24 02:51 | 33.97023 | -118.34711 | 5917 ft | 242 kts | 122° |
| 2026-04-24 02:51 | 33.96111 | -118.32999 | 5642 ft | 240 kts | 121° |
| 2026-04-24 02:51 | 33.95217 | -118.31322 | 5374 ft | 239 kts | 121° |
| 2026-04-24 02:52 | 33.94322 | -118.29635 | 5106 ft | 237 kts | 121° |
| 2026-04-24 02:52 | 33.93432 | -118.27948 | 4835 ft | 236 kts | 121° |
| 2026-04-24 02:52 | 33.92558 | -118.26299 | 4541 ft | 236 kts | 121° |
| 2026-04-24 02:52 | 33.91678 | -118.24632 | 4200 ft | 235 kts | 122° |
| 2026-04-24 02:53 | 33.90807 | -118.22977 | 3874 ft | 231 kts | 121° |
| 2026-04-24 02:53 | 33.89957 | -118.21357 | 3556 ft | 228 kts | 121° |
| 2026-04-24 02:53 | 33.89105 | -118.19726 | 3251 ft | 229 kts | 118° |
| 2026-04-24 02:53 | 33.88681 | -118.17914 | 3018 ft | 223 kts | 84° |
| 2026-04-24 02:54 | 33.89172 | -118.16260 | 3009 ft | 207 kts | 47° |
| 2026-04-24 02:54 | 33.90392 | -118.15321 | 3039 ft | 215 kts | 11° |
| 2026-04-24 02:54 | 33.91882 | -118.15423 | 3023 ft | 213 kts | 338° |
| 2026-04-24 02:54 | 33.93178 | -118.16233 | 2992 ft | 212 kts | 320° |
| 2026-04-24 02:55 | 33.94029 | -118.17669 | 2925 ft | 211 kts | 288° |
| 2026-04-24 02:55 | 33.94266 | -118.18810 | 2853 ft | 205 kts | 282° |
| 2026-04-24 02:55 | 33.94602 | -118.20943 | 2664 ft | 186 kts | 281° |
| 2026-04-24 02:55 | 33.94838 | -118.22442 | 2512 ft | 174 kts | 281° |
| 2026-04-24 02:56 | 33.95050 | -118.23804 | 2399 ft | 164 kts | 280° |
| 2026-04-24 02:56 | 33.95097 | -118.24721 | 2305 ft | 165 kts | 265° |
| 2026-04-24 02:56 | 33.94920 | -118.26486 | 2073 ft | 149 kts | 264° |
| 2026-04-24 02:56 | 33.94807 | -118.27688 | 1851 ft | 141 kts | 263° |
| 2026-04-24 02:57 | 33.94693 | -118.28847 | 1679 ft | 134 kts | 263° |
| 2026-04-24 02:57 | 33.94620 | -118.29575 | 1532 ft | 125 kts | 263° |
| 2026-04-24 02:57 | 33.94482 | -118.30924 | 1206 ft | 124 kts | 262° |
| 2026-04-24 02:57 | 33.94371 | -118.31957 | 1094 ft | 122 kts | 263° |
| 2026-04-24 02:58 | 33.94275 | -118.32958 | 893 ft | 121 kts | 263° |
| 2026-04-24 02:58 | 33.94165 | -118.33975 | 793 ft | 120 kts | 263° |
| 2026-04-24 02:58 | 33.94070 | -118.34981 | 674 ft | 122 kts | 263° |
| 2026-04-24 02:58 | 33.93971 | -118.35980 | 523 ft | 119 kts | 263° |
| 2026-04-24 02:59 | 33.93869 | -118.36970 | 373 ft | 120 kts | 264° |
| 2026-04-24 02:59 | 33.93767 | -118.37964 | 207 ft | 120 kts | 262° |
| 2026-04-24 02:59 | 33.93669 | -118.38953 | 110 ft | 113 kts | 263° |
| 2026-04-24 02:59 | 33.93595 | -118.39657 | 116 ft | 66 kts | 264° |
| 2026-04-24 03:00 | 33.93549 | -118.40031 | 121 ft | 35 kts | 256° |
| 2026-04-24 03:00 | 33.93467 | -118.40221 | 123 ft | 13 kts | 202° |
| 2026-04-24 03:00 | 33.93428 | -118.40189 | 123 ft | 6 kts | 105° |
| 2026-04-24 03:00 | 33.93427 | -118.40098 | 122 ft | 15 kts | 83° |
| 2026-04-24 03:01 | 33.93444 | -118.39945 | 119 ft | 20 kts | 83° |
| 2026-04-24 03:01 | 33.93459 | -118.39779 | 117 ft | 16 kts | 82° |
| 2026-04-24 03:01 | 33.93475 | -118.39632 | 115 ft | 18 kts | 82° |
| 2026-04-24 03:01 | 33.93493 | -118.39471 | 113 ft | 20 kts | 84° |
| 2026-04-24 03:02 | 33.93509 | -118.39307 | 112 ft | 18 kts | 83° |
| 2026-04-24 03:02 | 33.93526 | -118.39146 | 110 ft | 20 kts | 83° |
| 2026-04-24 03:02 | 33.93541 | -118.38991 | 109 ft | 18 kts | 83° |
| 2026-04-24 03:02 | 33.93550 | -118.38887 | 109 ft | 11 kts | 84° |
| 2026-04-24 03:03 | 33.93562 | -118.38785 | 108 ft | 12 kts | 81° |
| 2026-04-24 03:03 | 33.93573 | -118.38673 | 108 ft | 14 kts | 83° |
| 2026-04-24 03:03 | 33.93584 | -118.38562 | 107 ft | 10 kts | 86° |
| 2026-04-24 03:03 | 33.93557 | -118.38519 | 107 ft | 5 kts | 161° |
| 2026-04-24 03:04 | 33.93501 | -118.38519 | 107 ft | 11 kts | 185° |
| 2026-04-24 03:04 | 33.93424 | -118.38520 | 107 ft | 6 kts | 180° |
| 2026-04-24 03:04 | 33.93397 | -118.38528 | 107 ft | 2 kts | 233° |
| 2026-04-24 03:04 | 33.93388 | -118.38560 | 107 ft | 4 kts | 264° |
| 2026-04-24 03:05 | 33.93388 | -118.38591 | 107 ft | 2 kts | 270° |
| 2026-04-24 03:05 | 33.93388 | -118.38593 | 107 ft | 0 kts | 270° |